sensor_id;sensor_type;location;lat;lon;timestamp;pressure;altitude;pressure_sealevel;temperature;humidity
28701;BME280;15877;52.344;16.790;2023-07-20T00:01:36;100014.27;;;22.22;65.03
28701;BME280;15877;52.344;16.790;2023-07-20T00:04:26;100006.77;;;22.19;64.99
28701;BME280;15877;52.344;16.790;2023-07-20T00:06:59;100007.14;;;22.17;65.40
28701;BME280;15877;52.344;16.790;2023-07-20T00:09:33;100009.20;;;22.14;66.00
28701;BME280;15877;52.344;16.790;2023-07-20T00:12:06;100009.71;;;22.13;66.27
28701;BME280;15877;52.344;16.790;2023-07-20T00:14:39;100014.27;;;22.12;66.36
28701;BME280;15877;52.344;16.790;2023-07-20T00:17:11;100016.30;;;22.09;67.20
28701;BME280;15877;52.344;16.790;2023-07-20T00:19:43;100014.95;;;22.06;67.36
28701;BME280;15877;52.344;16.790;2023-07-20T00:22:16;100019.08;;;22.04;67.45
28701;BME280;15877;52.344;16.790;2023-07-20T00:24:48;100016.02;;;22.03;67.38
28701;BME280;15877;52.344;16.790;2023-07-20T00:27:20;100017.20;;;21.98;67.50
28701;BME280;15877;52.344;16.790;2023-07-20T00:29:53;100022.35;;;21.94;67.37
28701;BME280;15877;52.344;16.790;2023-07-20T00:32:25;100020.84;;;21.96;66.76
28701;BME280;15877;52.344;16.790;2023-07-20T00:35:00;100024.96;;;21.93;67.44
28701;BME280;15877;52.344;16.790;2023-07-20T00:37:33;100030.20;;;21.91;67.41
28701;BME280;15877;52.344;16.790;2023-07-20T00:40:07;100030.73;;;21.89;67.37
28701;BME280;15877;52.344;16.790;2023-07-20T00:42:39;100028.61;;;21.88;67.31
28701;BME280;15877;52.344;16.790;2023-07-20T00:45:12;100027.16;;;21.87;67.72
28701;BME280;15877;52.344;16.790;2023-07-20T00:47:45;100028.59;;;21.88;67.86
28701;BME280;15877;52.344;16.790;2023-07-20T00:50:18;100028.51;;;21.88;68.22
28701;BME280;15877;52.344;16.790;2023-07-20T00:52:51;100024.63;;;21.86;68.17
28701;BME280;15877;52.344;16.790;2023-07-20T00:55:24;100030.32;;;21.88;68.63
28701;BME280;15877;52.344;16.790;2023-07-20T00:57:58;100029.07;;;21.86;68.42
28701;BME280;15877;52.344;16.790;2023-07-20T01:00:31;100036.44;;;21.85;68.46
28701;BME280;15877;52.344;16.790;2023-07-20T01:03:03;100036.87;;;21.85;68.38
28701;BME280;15877;52.344;16.790;2023-07-20T01:05:42;100033.98;;;21.84;68.03
28701;BME280;15877;52.344;16.790;2023-07-20T01:08:28;100042.56;;;21.77;68.33
28701;BME280;15877;52.344;16.790;2023-07-20T01:11:10;100047.55;;;21.75;68.10
28701;BME280;15877;52.344;16.790;2023-07-20T01:13:45;100037.35;;;21.67;68.20
28701;BME280;15877;52.344;16.790;2023-07-20T01:16:18;100041.46;;;21.70;68.19
28701;BME280;15877;52.344;16.790;2023-07-20T01:18:50;100039.70;;;21.69;68.05
28701;BME280;15877;52.344;16.790;2023-07-20T01:21:28;100038.79;;;21.62;68.24
28701;BME280;15877;52.344;16.790;2023-07-20T01:24:18;100037.31;;;21.55;68.45
28701;BME280;15877;52.344;16.790;2023-07-20T01:27:06;100028.85;;;21.54;69.07
28701;BME280;15877;52.344;16.790;2023-07-20T01:30:00;100029.55;;;21.52;69.05
28701;BME280;15877;52.344;16.790;2023-07-20T01:32:36;100029.84;;;21.48;69.12
28701;BME280;15877;52.344;16.790;2023-07-20T01:35:11;100026.78;;;21.44;69.44
28701;BME280;15877;52.344;16.790;2023-07-20T01:37:47;100021.34;;;21.45;69.83
28701;BME280;15877;52.344;16.790;2023-07-20T01:40:19;100002.39;;;21.45;70.10
28701;BME280;15877;52.344;16.790;2023-07-20T01:42:52;99990.68;;;21.39;70.42
28701;BME280;15877;52.344;16.790;2023-07-20T01:45:25;100005.66;;;21.44;70.56
28701;BME280;15877;52.344;16.790;2023-07-20T01:48:00;99992.31;;;21.39;69.91
28701;BME280;15877;52.344;16.790;2023-07-20T01:50:33;100003.93;;;21.45;70.06
28701;BME280;15877;52.344;16.790;2023-07-20T01:53:05;100015.68;;;21.49;69.36
28701;BME280;15877;52.344;16.790;2023-07-20T01:55:37;100008.29;;;21.50;69.19
28701;BME280;15877;52.344;16.790;2023-07-20T01:58:10;100005.08;;;21.44;69.82
28701;BME280;15877;52.344;16.790;2023-07-20T02:00:42;100007.92;;;21.41;70.04
28701;BME280;15877;52.344;16.790;2023-07-20T02:03:14;100011.41;;;21.37;70.69
28701;BME280;15877;52.344;16.790;2023-07-20T02:05:47;100019.41;;;21.37;70.35
28701;BME280;15877;52.344;16.790;2023-07-20T02:08:20;100020.35;;;21.38;70.49
28701;BME280;15877;52.344;16.790;2023-07-20T02:10:53;100022.56;;;21.37;70.54
28701;BME280;15877;52.344;16.790;2023-07-20T02:13:26;100027.99;;;21.36;70.38
28701;BME280;15877;52.344;16.790;2023-07-20T02:15:58;100031.34;;;21.35;70.22
28701;BME280;15877;52.344;16.790;2023-07-20T02:18:31;100035.31;;;21.34;70.39
28701;BME280;15877;52.344;16.790;2023-07-20T02:21:04;100039.70;;;21.33;70.16
28701;BME280;15877;52.344;16.790;2023-07-20T02:23:36;100035.36;;;21.29;70.29
28701;BME280;15877;52.344;16.790;2023-07-20T02:26:08;100021.81;;;21.17;70.52
28701;BME280;15877;52.344;16.790;2023-07-20T02:28:41;100022.18;;;21.19;70.47
28701;BME280;15877;52.344;16.790;2023-07-20T02:31:16;100015.58;;;21.18;70.53
28701;BME280;15877;52.344;16.790;2023-07-20T02:33:48;100034.46;;;21.27;70.55
28701;BME280;15877;52.344;16.790;2023-07-20T02:36:20;100034.25;;;21.26;70.41
28701;BME280;15877;52.344;16.790;2023-07-20T02:38:53;100029.63;;;21.24;70.50
28701;BME280;15877;52.344;16.790;2023-07-20T02:41:25;100034.86;;;21.25;70.53
28701;BME280;15877;52.344;16.790;2023-07-20T02:44:02;100036.52;;;21.23;70.54
28701;BME280;15877;52.344;16.790;2023-07-20T02:46:34;100034.42;;;21.23;70.40
28701;BME280;15877;52.344;16.790;2023-07-20T02:49:08;100032.65;;;21.23;70.61
28701;BME280;15877;52.344;16.790;2023-07-20T02:51:41;100031.00;;;21.24;70.70
28701;BME280;15877;52.344;16.790;2023-07-20T02:54:14;100026.93;;;21.22;71.02
28701;BME280;15877;52.344;16.790;2023-07-20T02:56:47;100019.49;;;21.23;70.50
28701;BME280;15877;52.344;16.790;2023-07-20T02:59:20;100018.44;;;21.23;70.31
28701;BME280;15877;52.344;16.790;2023-07-20T03:01:52;100022.02;;;21.22;70.31
28701;BME280;15877;52.344;16.790;2023-07-20T03:04:27;100033.70;;;21.17;70.56
28701;BME280;15877;52.344;16.790;2023-07-20T03:06:58;100037.95;;;21.13;70.85
28701;BME280;15877;52.344;16.790;2023-07-20T03:09:32;100047.38;;;21.12;70.87
28701;BME280;15877;52.344;16.790;2023-07-20T03:12:05;100045.21;;;21.12;70.92
28701;BME280;15877;52.344;16.790;2023-07-20T03:14:38;100045.70;;;21.09;71.07
28701;BME280;15877;52.344;16.790;2023-07-20T03:17:11;100049.36;;;21.08;70.84
28701;BME280;15877;52.344;16.790;2023-07-20T03:19:48;100050.05;;;21.07;70.87
28701;BME280;15877;52.344;16.790;2023-07-20T03:22:20;100042.00;;;21.03;71.12
28701;BME280;15877;52.344;16.790;2023-07-20T03:24:54;100048.88;;;21.02;71.16
28701;BME280;15877;52.344;16.790;2023-07-20T03:27:26;100048.34;;;21.07;70.77
28701;BME280;15877;52.344;16.790;2023-07-20T03:30:01;100047.54;;;21.04;71.43
28701;BME280;15877;52.344;16.790;2023-07-20T03:32:34;100041.39;;;21.07;71.07
28701;BME280;15877;52.344;16.790;2023-07-20T03:35:08;100038.79;;;21.05;71.41
28701;BME280;15877;52.344;16.790;2023-07-20T03:37:44;100048.53;;;21.15;70.43
28701;BME280;15877;52.344;16.790;2023-07-20T03:40:17;100045.39;;;21.12;70.76
28701;BME280;15877;52.344;16.790;2023-07-20T03:42:49;100044.90;;;21.06;71.01
28701;BME280;15877;52.344;16.790;2023-07-20T03:45:22;100039.71;;;21.06;70.45
28701;BME280;15877;52.344;16.790;2023-07-20T03:47:56;100051.66;;;21.09;70.88
28701;BME280;15877;52.344;16.790;2023-07-20T03:50:28;100051.55;;;20.95;71.93
28701;BME280;15877;52.344;16.790;2023-07-20T03:53:03;100048.09;;;20.91;72.17
28701;BME280;15877;52.344;16.790;2023-07-20T03:55:38;100043.80;;;20.92;72.35
28701;BME280;15877;52.344;16.790;2023-07-20T03:58:11;100044.98;;;21.00;71.59
28701;BME280;15877;52.344;16.790;2023-07-20T04:00:47;100042.84;;;21.01;71.08
28701;BME280;15877;52.344;16.790;2023-07-20T04:03:21;100033.70;;;20.92;71.47
28701;BME280;15877;52.344;16.790;2023-07-20T04:05:56;100043.89;;;20.98;71.83
28701;BME280;15877;52.344;16.790;2023-07-20T04:08:32;100049.23;;;20.94;71.85
28701;BME280;15877;52.344;16.790;2023-07-20T04:11:04;100051.70;;;20.95;72.02
28701;BME280;15877;52.344;16.790;2023-07-20T04:13:37;100049.38;;;20.91;72.62
28701;BME280;15877;52.344;16.790;2023-07-20T04:16:09;100037.83;;;20.95;71.37
28701;BME280;15877;52.344;16.790;2023-07-20T04:18:41;100052.59;;;21.02;71.72
28701;BME280;15877;52.344;16.790;2023-07-20T04:21:14;100051.72;;;21.04;71.65
28701;BME280;15877;52.344;16.790;2023-07-20T04:23:47;100054.30;;;21.04;71.68
28701;BME280;15877;52.344;16.790;2023-07-20T04:26:19;100059.78;;;20.98;72.66
28701;BME280;15877;52.344;16.790;2023-07-20T04:28:53;100053.79;;;21.00;72.05
28701;BME280;15877;52.344;16.790;2023-07-20T04:31:38;100053.59;;;21.04;71.89
28701;BME280;15877;52.344;16.790;2023-07-20T04:34:11;100052.28;;;20.98;71.86
28701;BME280;15877;52.344;16.790;2023-07-20T04:36:46;100043.30;;;20.95;72.48
28701;BME280;15877;52.344;16.790;2023-07-20T04:39:18;100043.19;;;20.93;73.18
28701;BME280;15877;52.344;16.790;2023-07-20T04:42:04;100049.52;;;20.95;73.36
28701;BME280;15877;52.344;16.790;2023-07-20T04:44:36;100047.75;;;20.95;73.59
28701;BME280;15877;52.344;16.790;2023-07-20T04:47:10;100051.70;;;20.95;73.50
28701;BME280;15877;52.344;16.790;2023-07-20T04:49:43;100047.55;;;21.00;72.71
28701;BME280;15877;52.344;16.790;2023-07-20T04:52:15;100052.84;;;21.02;72.76
28701;BME280;15877;52.344;16.790;2023-07-20T04:54:50;100045.85;;;20.97;72.75
28701;BME280;15877;52.344;16.790;2023-07-20T04:57:25;100054.02;;;21.03;73.10
28701;BME280;15877;52.344;16.790;2023-07-20T04:59:57;100056.78;;;21.08;73.01
28701;BME280;15877;52.344;16.790;2023-07-20T05:02:34;100053.85;;;21.12;73.63
28701;BME280;15877;52.344;16.790;2023-07-20T05:05:07;100059.81;;;21.16;73.82
28701;BME280;15877;52.344;16.790;2023-07-20T05:07:40;100057.10;;;21.20;73.73
28701;BME280;15877;52.344;16.790;2023-07-20T05:10:15;100057.77;;;21.22;73.41
28701;BME280;15877;52.344;16.790;2023-07-20T05:12:48;100059.11;;;21.26;73.19
28701;BME280;15877;52.344;16.790;2023-07-20T05:15:23;100055.08;;;21.29;73.24
28701;BME280;15877;52.344;16.790;2023-07-20T05:17:56;100054.80;;;21.31;73.22
28701;BME280;15877;52.344;16.790;2023-07-20T05:20:29;100054.20;;;21.29;73.02
28701;BME280;15877;52.344;16.790;2023-07-20T05:23:05;100060.20;;;21.31;72.67
28701;BME280;15877;52.344;16.790;2023-07-20T05:25:38;100064.13;;;21.32;72.66
28701;BME280;15877;52.344;16.790;2023-07-20T05:28:10;100066.16;;;21.31;72.45
28701;BME280;15877;52.344;16.790;2023-07-20T05:30:43;100054.80;;;21.24;71.81
28701;BME280;15877;52.344;16.790;2023-07-20T05:33:16;100064.58;;;21.27;72.63
28701;BME280;15877;52.344;16.790;2023-07-20T05:35:49;100065.98;;;21.20;72.39
28701;BME280;15877;52.344;16.790;2023-07-20T05:38:22;100072.83;;;21.29;71.73
28701;BME280;15877;52.344;16.790;2023-07-20T05:41:01;100070.02;;;21.34;71.00
28701;BME280;15877;52.344;16.790;2023-07-20T05:43:34;100070.56;;;21.21;72.08
28701;BME280;15877;52.344;16.790;2023-07-20T05:46:07;100071.40;;;21.20;71.81
28701;BME280;15877;52.344;16.790;2023-07-20T05:48:40;100073.32;;;21.26;72.06
28701;BME280;15877;52.344;16.790;2023-07-20T05:51:13;100080.43;;;21.17;73.23
28701;BME280;15877;52.344;16.790;2023-07-20T05:53:49;100077.90;;;21.09;73.13
28701;BME280;15877;52.344;16.790;2023-07-20T05:56:21;100077.62;;;21.17;73.02
28701;BME280;15877;52.344;16.790;2023-07-20T05:58:55;100079.30;;;21.21;72.66
28701;BME280;15877;52.344;16.790;2023-07-20T06:01:27;100077.17;;;21.27;71.77
28701;BME280;15877;52.344;16.790;2023-07-20T06:03:59;100081.45;;;21.27;71.62
28701;BME280;15877;52.344;16.790;2023-07-20T06:06:32;100077.73;;;21.28;72.24
28701;BME280;15877;52.344;16.790;2023-07-20T06:09:04;100080.58;;;21.24;73.00
28701;BME280;15877;52.344;16.790;2023-07-20T06:11:41;100068.05;;;21.18;72.72
28701;BME280;15877;52.344;16.790;2023-07-20T06:14:13;100078.95;;;21.30;72.70
28701;BME280;15877;52.344;16.790;2023-07-20T06:16:46;100079.12;;;21.36;72.33
28701;BME280;15877;52.344;16.790;2023-07-20T06:19:18;100076.81;;;21.46;72.32
28701;BME280;15877;52.344;16.790;2023-07-20T06:21:50;100074.89;;;21.51;71.71
28701;BME280;15877;52.344;16.790;2023-07-20T06:24:22;100075.96;;;21.56;71.53
28701;BME280;15877;52.344;16.790;2023-07-20T06:26:54;100082.68;;;21.55;71.38
28701;BME280;15877;52.344;16.790;2023-07-20T06:29:27;100088.09;;;21.58;70.81
28701;BME280;15877;52.344;16.790;2023-07-20T06:31:59;100085.73;;;21.58;71.55
28701;BME280;15877;52.344;16.790;2023-07-20T06:34:31;100091.98;;;21.55;71.28
28701;BME280;15877;52.344;16.790;2023-07-20T06:37:07;100094.65;;;21.66;69.87
28701;BME280;15877;52.344;16.790;2023-07-20T06:39:40;100094.84;;;21.71;69.73
28701;BME280;15877;52.344;16.790;2023-07-20T06:42:15;100083.77;;;21.72;68.91
28701;BME280;15877;52.344;16.790;2023-07-20T06:44:47;100102.70;;;21.76;68.42
28701;BME280;15877;52.344;16.790;2023-07-20T06:47:20;100101.32;;;21.70;68.73
28701;BME280;15877;52.344;16.790;2023-07-20T06:49:52;100100.70;;;21.76;67.29
28701;BME280;15877;52.344;16.790;2023-07-20T06:52:24;100105.61;;;21.80;67.47
28701;BME280;15877;52.344;16.790;2023-07-20T06:54:56;100107.14;;;21.79;65.01
28701;BME280;15877;52.344;16.790;2023-07-20T06:57:34;100105.79;;;21.76;65.41
28701;BME280;15877;52.344;16.790;2023-07-20T07:00:09;100104.42;;;21.78;65.07
28701;BME280;15877;52.344;16.790;2023-07-20T07:02:41;100109.65;;;21.85;65.51
28701;BME280;15877;52.344;16.790;2023-07-20T07:05:15;100114.45;;;21.90;66.03
28701;BME280;15877;52.344;16.790;2023-07-20T07:07:51;100111.59;;;21.88;64.79
28701;BME280;15877;52.344;16.790;2023-07-20T07:10:23;100117.33;;;21.94;65.31
28701;BME280;15877;52.344;16.790;2023-07-20T07:12:56;100111.10;;;21.96;65.61
28701;BME280;15877;52.344;16.790;2023-07-20T07:15:28;100111.17;;;21.91;64.96
28701;BME280;15877;52.344;16.790;2023-07-20T07:18:00;100108.27;;;21.94;64.26
28701;BME280;15877;52.344;16.790;2023-07-20T07:20:34;100108.64;;;22.03;64.26
28701;BME280;15877;52.344;16.790;2023-07-20T07:23:07;100113.98;;;22.05;62.78
28701;BME280;15877;52.344;16.790;2023-07-20T07:25:39;100107.82;;;21.98;63.22
28701;BME280;15877;52.344;16.790;2023-07-20T07:28:11;100110.35;;;22.00;64.29
28701;BME280;15877;52.344;16.790;2023-07-20T07:30:43;100112.96;;;22.10;64.78
28701;BME280;15877;52.344;16.790;2023-07-20T07:33:15;100110.06;;;22.15;64.91
28701;BME280;15877;52.344;16.790;2023-07-20T07:35:49;100101.13;;;22.06;65.98
28701;BME280;15877;52.344;16.790;2023-07-20T07:38:21;100111.42;;;22.20;65.12
28701;BME280;15877;52.344;16.790;2023-07-20T07:41:15;100109.93;;;22.24;64.72
28701;BME280;15877;52.344;16.790;2023-07-20T07:43:47;100105.46;;;22.35;65.19
28701;BME280;15877;52.344;16.790;2023-07-20T07:46:20;100108.02;;;22.46;64.64
28701;BME280;15877;52.344;16.790;2023-07-20T07:48:53;100107.66;;;22.50;63.35
28701;BME280;15877;52.344;16.790;2023-07-20T07:51:25;100106.41;;;22.57;62.03
28701;BME280;15877;52.344;16.790;2023-07-20T07:53:57;100108.19;;;22.57;63.64
28701;BME280;15877;52.344;16.790;2023-07-20T07:56:30;100109.29;;;22.55;63.91
28701;BME280;15877;52.344;16.790;2023-07-20T07:59:02;100108.84;;;22.65;63.59
28701;BME280;15877;52.344;16.790;2023-07-20T08:01:35;100110.80;;;22.69;63.06
28701;BME280;15877;52.344;16.790;2023-07-20T08:04:07;100112.70;;;22.75;63.08
28701;BME280;15877;52.344;16.790;2023-07-20T08:06:40;100118.04;;;22.77;61.63
28701;BME280;15877;52.344;16.790;2023-07-20T08:09:12;100121.45;;;22.80;61.13
28701;BME280;15877;52.344;16.790;2023-07-20T08:11:45;100129.73;;;22.84;60.63
28701;BME280;15877;52.344;16.790;2023-07-20T08:14:18;100130.96;;;22.86;60.10
28701;BME280;15877;52.344;16.790;2023-07-20T08:16:51;100126.41;;;22.81;60.33
28701;BME280;15877;52.344;16.790;2023-07-20T08:19:24;100124.60;;;22.77;60.51
28701;BME280;15877;52.344;16.790;2023-07-20T08:21:56;100126.80;;;22.72;60.94
28701;BME280;15877;52.344;16.790;2023-07-20T08:24:29;100120.50;;;22.82;61.52
28701;BME280;15877;52.344;16.790;2023-07-20T08:27:01;100123.09;;;22.91;61.94
28701;BME280;15877;52.344;16.790;2023-07-20T08:29:33;100126.24;;;23.06;61.45
28701;BME280;15877;52.344;16.790;2023-07-20T08:32:07;100126.15;;;23.16;59.16
28701;BME280;15877;52.344;16.790;2023-07-20T08:34:41;100120.71;;;23.16;59.93
28701;BME280;15877;52.344;16.790;2023-07-20T08:37:13;100121.92;;;23.21;60.49
28701;BME280;15877;52.344;16.790;2023-07-20T08:39:45;100118.69;;;23.18;60.89
28701;BME280;15877;52.344;16.790;2023-07-20T08:42:18;100116.00;;;23.17;61.05
28701;BME280;15877;52.344;16.790;2023-07-20T08:44:51;100118.44;;;23.23;59.09
28701;BME280;15877;52.344;16.790;2023-07-20T08:47:25;100122.06;;;23.24;58.68
28701;BME280;15877;52.344;16.790;2023-07-20T08:49:58;100130.90;;;23.21;58.78
28701;BME280;15877;52.344;16.790;2023-07-20T08:52:31;100138.83;;;23.12;58.16
28701;BME280;15877;52.344;16.790;2023-07-20T08:55:06;100141.31;;;23.03;57.68
28701;BME280;15877;52.344;16.790;2023-07-20T08:57:40;100141.17;;;22.85;59.52
28701;BME280;15877;52.344;16.790;2023-07-20T09:00:15;100139.66;;;22.64;61.24
28701;BME280;15877;52.344;16.790;2023-07-20T09:02:51;100151.65;;;22.48;62.65
28701;BME280;15877;52.344;16.790;2023-07-20T09:05:25;100146.11;;;22.23;64.07
28701;BME280;15877;52.344;16.790;2023-07-20T09:07:57;100161.06;;;22.20;65.30
28701;BME280;15877;52.344;16.790;2023-07-20T09:10:31;100163.63;;;21.96;66.75
28701;BME280;15877;52.344;16.790;2023-07-20T09:13:03;100170.45;;;21.81;67.57
28701;BME280;15877;52.344;16.790;2023-07-20T09:15:37;100177.01;;;21.77;67.93
28701;BME280;15877;52.344;16.790;2023-07-20T09:18:09;100174.77;;;21.70;68.61
28701;BME280;15877;52.344;16.790;2023-07-20T09:20:43;100188.16;;;21.61;68.16
28701;BME280;15877;52.344;16.790;2023-07-20T09:23:15;100194.02;;;21.29;66.37
28701;BME280;15877;52.344;16.790;2023-07-20T09:25:50;100187.98;;;21.12;65.42
28701;BME280;15877;52.344;16.790;2023-07-20T09:28:23;100183.75;;;21.10;64.77
28701;BME280;15877;52.344;16.790;2023-07-20T09:30:56;100177.17;;;20.95;63.11
28701;BME280;15877;52.344;16.790;2023-07-20T09:33:29;100172.80;;;21.06;62.88
28701;BME280;15877;52.344;16.790;2023-07-20T09:36:05;100169.00;;;21.07;62.63
28701;BME280;15877;52.344;16.790;2023-07-20T09:38:58;100166.20;;;21.02;61.37
28701;BME280;15877;52.344;16.790;2023-07-20T09:41:41;100166.77;;;21.30;61.50
28701;BME280;15877;52.344;16.790;2023-07-20T09:44:17;100167.61;;;21.66;61.14
28701;BME280;15877;52.344;16.790;2023-07-20T09:46:54;100168.52;;;21.89;60.07
28701;BME280;15877;52.344;16.790;2023-07-20T09:49:30;100159.20;;;21.70;59.61
28701;BME280;15877;52.344;16.790;2023-07-20T09:52:22;100170.76;;;21.90;59.74
28701;BME280;15877;52.344;16.790;2023-07-20T09:54:58;100171.16;;;22.10;58.34
28701;BME280;15877;52.344;16.790;2023-07-20T09:57:34;100168.63;;;22.21;57.52
28701;BME280;15877;52.344;16.790;2023-07-20T10:00:08;100169.61;;;22.24;56.76
28701;BME280;15877;52.344;16.790;2023-07-20T10:02:47;100158.11;;;22.35;57.47
28701;BME280;15877;52.344;16.790;2023-07-20T10:05:23;100163.33;;;22.44;56.28
28701;BME280;15877;52.344;16.790;2023-07-20T10:07:56;100162.88;;;22.62;56.13
28701;BME280;15877;52.344;16.790;2023-07-20T10:10:33;100152.08;;;22.66;55.42
28701;BME280;15877;52.344;16.790;2023-07-20T10:13:06;100152.17;;;22.73;55.40
28701;BME280;15877;52.344;16.790;2023-07-20T10:15:46;100150.77;;;22.88;54.97
28701;BME280;15877;52.344;16.790;2023-07-20T10:18:24;100149.87;;;22.86;54.87
28701;BME280;15877;52.344;16.790;2023-07-20T10:21:00;100152.63;;;22.96;54.62
28701;BME280;15877;52.344;16.790;2023-07-20T10:23:36;100145.90;;;23.13;53.89
28701;BME280;15877;52.344;16.790;2023-07-20T10:26:11;100139.40;;;23.31;53.81
28701;BME280;15877;52.344;16.790;2023-07-20T10:28:44;100152.27;;;23.26;53.93
28701;BME280;15877;52.344;16.790;2023-07-20T10:31:18;100147.05;;;23.37;54.07
28701;BME280;15877;52.344;16.790;2023-07-20T10:33:51;100149.86;;;23.40;54.12
28701;BME280;15877;52.344;16.790;2023-07-20T10:36:27;100147.96;;;23.34;53.34
28701;BME280;15877;52.344;16.790;2023-07-20T10:39:02;100152.43;;;23.36;54.62
28701;BME280;15877;52.344;16.790;2023-07-20T10:41:39;100155.84;;;23.23;55.24
28701;BME280;15877;52.344;16.790;2023-07-20T10:44:11;100160.77;;;23.29;54.95
28701;BME280;15877;52.344;16.790;2023-07-20T10:46:45;100161.23;;;23.37;54.46
28701;BME280;15877;52.344;16.790;2023-07-20T10:49:18;100159.39;;;23.27;55.01
28701;BME280;15877;52.344;16.790;2023-07-20T10:52:03;100156.29;;;23.15;54.38
28701;BME280;15877;52.344;16.790;2023-07-20T10:54:51;100151.94;;;23.15;55.63
28701;BME280;15877;52.344;16.790;2023-07-20T10:57:28;100136.81;;;23.42;54.74
28701;BME280;15877;52.344;16.790;2023-07-20T11:00:11;100150.73;;;23.85;54.24
28701;BME280;15877;52.344;16.790;2023-07-20T11:02:48;100131.33;;;23.98;54.26
28701;BME280;15877;52.344;16.790;2023-07-20T11:05:36;100139.08;;;23.94;54.89
28701;BME280;15877;52.344;16.790;2023-07-20T11:08:11;100148.13;;;23.77;55.24
28701;BME280;15877;52.344;16.790;2023-07-20T11:10:44;100142.39;;;23.81;55.18
28701;BME280;15877;52.344;16.790;2023-07-20T11:13:23;100132.73;;;23.79;56.03
28701;BME280;15877;52.344;16.790;2023-07-20T11:16:12;100135.18;;;23.79;57.40
28701;BME280;15877;52.344;16.790;2023-07-20T11:18:44;100135.70;;;23.78;58.61
28701;BME280;15877;52.344;16.790;2023-07-20T11:21:17;100133.36;;;23.80;57.51
28701;BME280;15877;52.344;16.790;2023-07-20T11:23:50;100129.84;;;24.11;56.32
28701;BME280;15877;52.344;16.790;2023-07-20T11:26:24;100132.13;;;24.32;55.95
28701;BME280;15877;52.344;16.790;2023-07-20T11:28:56;100127.59;;;24.23;55.64
28701;BME280;15877;52.344;16.790;2023-07-20T11:31:30;100128.82;;;24.28;56.49
28701;BME280;15877;52.344;16.790;2023-07-20T11:34:03;100129.55;;;24.40;54.53
28701;BME280;15877;52.344;16.790;2023-07-20T11:36:39;100125.88;;;24.63;54.97
28701;BME280;15877;52.344;16.790;2023-07-20T11:39:16;100129.40;;;24.66;53.70
28701;BME280;15877;52.344;16.790;2023-07-20T11:41:49;100127.67;;;24.75;54.43
28701;BME280;15877;52.344;16.790;2023-07-20T11:44:22;100123.96;;;24.76;54.24
28701;BME280;15877;52.344;16.790;2023-07-20T11:47:06;100137.81;;;24.57;52.16
28701;BME280;15877;52.344;16.790;2023-07-20T11:49:40;100137.27;;;24.38;51.83
28701;BME280;15877;52.344;16.790;2023-07-20T11:52:15;100135.75;;;24.20;52.34
28701;BME280;15877;52.344;16.790;2023-07-20T11:54:49;100136.23;;;24.08;52.20
28701;BME280;15877;52.344;16.790;2023-07-20T11:57:22;100130.58;;;24.01;51.75
28701;BME280;15877;52.344;16.790;2023-07-20T11:59:58;100128.28;;;24.29;50.29
28701;BME280;15877;52.344;16.790;2023-07-20T12:02:35;100127.92;;;24.48;48.72
28701;BME280;15877;52.344;16.790;2023-07-20T12:05:08;100129.34;;;24.66;47.52
28701;BME280;15877;52.344;16.790;2023-07-20T12:07:40;100129.17;;;24.72;47.45
28701;BME280;15877;52.344;16.790;2023-07-20T12:10:15;100130.21;;;24.64;47.29
28701;BME280;15877;52.344;16.790;2023-07-20T12:12:47;100126.35;;;24.88;46.94
28701;BME280;15877;52.344;16.790;2023-07-20T12:15:22;100130.12;;;24.91;45.89
28701;BME280;15877;52.344;16.790;2023-07-20T12:17:55;100133.07;;;24.88;45.74
28701;BME280;15877;52.344;16.790;2023-07-20T12:20:29;100137.97;;;25.10;45.47
28701;BME280;15877;52.344;16.790;2023-07-20T12:23:03;100134.02;;;25.27;45.19
28701;BME280;15877;52.344;16.790;2023-07-20T12:25:38;100127.09;;;25.31;45.25
28701;BME280;15877;52.344;16.790;2023-07-20T12:28:12;100123.95;;;25.47;45.88
28701;BME280;15877;52.344;16.790;2023-07-20T12:30:46;100124.78;;;25.49;45.63
28701;BME280;15877;52.344;16.790;2023-07-20T12:33:19;100124.89;;;25.67;45.29
28701;BME280;15877;52.344;16.790;2023-07-20T12:35:51;100122.01;;;25.60;44.75
28701;BME280;15877;52.344;16.790;2023-07-20T12:38:27;100112.63;;;25.61;45.21
28701;BME280;15877;52.344;16.790;2023-07-20T12:40:59;100108.33;;;25.65;46.24
28701;BME280;15877;52.344;16.790;2023-07-20T12:43:33;100094.34;;;25.75;45.08
28701;BME280;15877;52.344;16.790;2023-07-20T12:46:06;100107.23;;;25.79;44.73
28701;BME280;15877;52.344;16.790;2023-07-20T12:48:38;100098.08;;;25.43;44.82
28701;BME280;15877;52.344;16.790;2023-07-20T12:51:13;100104.25;;;25.33;44.99
28701;BME280;15877;52.344;16.790;2023-07-20T12:53:45;100106.39;;;25.02;44.89
28701;BME280;15877;52.344;16.790;2023-07-20T12:56:18;100105.04;;;24.77;45.03
28701;BME280;15877;52.344;16.790;2023-07-20T12:58:53;100108.00;;;24.58;45.54
28701;BME280;15877;52.344;16.790;2023-07-20T13:01:25;100117.13;;;24.41;46.25
28701;BME280;15877;52.344;16.790;2023-07-20T13:03:57;100112.70;;;24.33;46.61
28701;BME280;15877;52.344;16.790;2023-07-20T13:06:33;100089.38;;;24.15;46.88
28701;BME280;15877;52.344;16.790;2023-07-20T13:09:07;100106.83;;;24.44;46.70
28701;BME280;15877;52.344;16.790;2023-07-20T13:11:39;100106.52;;;24.62;46.16
28701;BME280;15877;52.344;16.790;2023-07-20T13:14:12;100109.31;;;24.71;45.22
28701;BME280;15877;52.344;16.790;2023-07-20T13:16:44;100112.02;;;25.19;45.34